sensor_id;sensor_type;location;lat;lon;timestamp;P1;durP1;ratioP1;P2;durP2;ratioP2
19111;SDS011;9688;51.906;8.376;2022-10-31T00:01:55;21.13;;;9.57;;
19111;SDS011;9688;51.906;8.376;2022-10-31T00:04:40;21.53;;;9.43;;
19111;SDS011;9688;51.906;8.376;2022-10-31T00:07:25;20.97;;;9.10;;
19111;SDS011;9688;51.906;8.376;2022-10-31T00:10:13;19.57;;;9.30;;
19111;SDS011;9688;51.906;8.376;2022-10-31T00:12:58;19.23;;;9.70;;
19111;SDS011;9688;51.906;8.376;2022-10-31T00:15:45;18.73;;;8.37;;
19111;SDS011;9688;51.906;8.376;2022-10-31T00:18:31;20.10;;;10.80;;
19111;SDS011;9688;51.906;8.376;2022-10-31T00:21:16;21.37;;;9.43;;
19111;SDS011;9688;51.906;8.376;2022-10-31T00:24:02;19.93;;;10.37;;
19111;SDS011;9688;51.906;8.376;2022-10-31T00:26:48;21.87;;;9.30;;
19111;SDS011;9688;51.906;8.376;2022-10-31T00:29:33;22.20;;;9.73;;
19111;SDS011;9688;51.906;8.376;2022-10-31T00:32:20;27.37;;;10.67;;
19111;SDS011;9688;51.906;8.376;2022-10-31T00:35:06;27.17;;;11.27;;
19111;SDS011;9688;51.906;8.376;2022-10-31T00:37:52;13.87;;;8.73;;
19111;SDS011;9688;51.906;8.376;2022-10-31T00:40:37;22.33;;;9.77;;
19111;SDS011;9688;51.906;8.376;2022-10-31T00:43:23;15.93;;;8.37;;
19111;SDS011;9688;51.906;8.376;2022-10-31T00:46:08;18.43;;;10.07;;
19111;SDS011;9688;51.906;8.376;2022-10-31T00:48:55;18.17;;;8.47;;
19111;SDS011;9688;51.906;8.376;2022-10-31T00:51:41;17.67;;;8.80;;
19111;SDS011;9688;51.906;8.376;2022-10-31T00:54:26;23.23;;;9.53;;
19111;SDS011;9688;51.906;8.376;2022-10-31T00:57:13;25.37;;;9.40;;
19111;SDS011;9688;51.906;8.376;2022-10-31T00:59:58;23.17;;;9.87;;
19111;SDS011;9688;51.906;8.376;2022-10-31T01:02:43;18.30;;;8.50;;
19111;SDS011;9688;51.906;8.376;2022-10-31T01:05:31;19.30;;;9.23;;
19111;SDS011;9688;51.906;8.376;2022-10-31T01:08:16;18.27;;;9.27;;
19111;SDS011;9688;51.906;8.376;2022-10-31T01:11:03;22.27;;;9.73;;
19111;SDS011;9688;51.906;8.376;2022-10-31T01:13:51;17.30;;;8.90;;
19111;SDS011;9688;51.906;8.376;2022-10-31T01:16:38;20.07;;;9.37;;
19111;SDS011;9688;51.906;8.376;2022-10-31T01:19:23;26.40;;;9.07;;
19111;SDS011;9688;51.906;8.376;2022-10-31T01:22:10;15.90;;;8.10;;
19111;SDS011;9688;51.906;8.376;2022-10-31T01:24:56;20.43;;;9.60;;
19111;SDS011;9688;51.906;8.376;2022-10-31T01:27:41;27.67;;;10.60;;
19111;SDS011;9688;51.906;8.376;2022-10-31T01:30:27;18.17;;;9.33;;
19111;SDS011;9688;51.906;8.376;2022-10-31T01:33:12;16.87;;;8.90;;
19111;SDS011;9688;51.906;8.376;2022-10-31T01:35:57;18.97;;;9.50;;
19111;SDS011;9688;51.906;8.376;2022-10-31T01:38:44;17.33;;;10.03;;
19111;SDS011;9688;51.906;8.376;2022-10-31T01:41:31;23.30;;;8.90;;
19111;SDS011;9688;51.906;8.376;2022-10-31T01:47:44;16.17;;;8.87;;
19111;SDS011;9688;51.906;8.376;2022-10-31T01:50:34;15.33;;;8.60;;
19111;SDS011;9688;51.906;8.376;2022-10-31T01:53:23;15.17;;;9.30;;
19111;SDS011;9688;51.906;8.376;2022-10-31T01:56:10;19.63;;;8.00;;
19111;SDS011;9688;51.906;8.376;2022-10-31T01:58:57;16.70;;;8.53;;
19111;SDS011;9688;51.906;8.376;2022-10-31T02:01:45;13.57;;;8.23;;
19111;SDS011;9688;51.906;8.376;2022-10-31T02:04:31;14.77;;;8.37;;
19111;SDS011;9688;51.906;8.376;2022-10-31T02:07:18;17.93;;;8.40;;
19111;SDS011;9688;51.906;8.376;2022-10-31T02:10:09;16.90;;;8.83;;
19111;SDS011;9688;51.906;8.376;2022-10-31T02:12:56;15.37;;;9.87;;
19111;SDS011;9688;51.906;8.376;2022-10-31T02:15:45;13.93;;;8.47;;
19111;SDS011;9688;51.906;8.376;2022-10-31T02:18:34;16.27;;;9.73;;
19111;SDS011;9688;51.906;8.376;2022-10-31T02:21:21;13.13;;;8.90;;
19111;SDS011;9688;51.906;8.376;2022-10-31T02:27:39;16.80;;;8.20;;
19111;SDS011;9688;51.906;8.376;2022-10-31T02:30:40;19.97;;;9.17;;
19111;SDS011;9688;51.906;8.376;2022-10-31T02:33:35;14.50;;;8.60;;
19111;SDS011;9688;51.906;8.376;2022-10-31T02:36:28;19.80;;;8.50;;
19111;SDS011;9688;51.906;8.376;2022-10-31T02:39:24;14.80;;;9.07;;
19111;SDS011;9688;51.906;8.376;2022-10-31T02:42:16;15.47;;;8.80;;
19111;SDS011;9688;51.906;8.376;2022-10-31T02:45:09;14.23;;;8.90;;
19111;SDS011;9688;51.906;8.376;2022-10-31T02:48:00;15.27;;;8.83;;
19111;SDS011;9688;51.906;8.376;2022-10-31T02:50:54;15.53;;;8.90;;
19111;SDS011;9688;51.906;8.376;2022-10-31T02:53:41;18.83;;;9.87;;
19111;SDS011;9688;51.906;8.376;2022-10-31T02:56:27;25.67;;;9.00;;
19111;SDS011;9688;51.906;8.376;2022-10-31T02:59:12;13.17;;;8.47;;
19111;SDS011;9688;51.906;8.376;2022-10-31T03:02:05;17.03;;;8.97;;
19111;SDS011;9688;51.906;8.376;2022-10-31T03:05:14;17.80;;;8.87;;
19111;SDS011;9688;51.906;8.376;2022-10-31T03:08:14;20.60;;;8.93;;
19111;SDS011;9688;51.906;8.376;2022-10-31T03:11:07;15.60;;;9.53;;
19111;SDS011;9688;51.906;8.376;2022-10-31T03:13:56;13.90;;;8.83;;
19111;SDS011;9688;51.906;8.376;2022-10-31T03:16:47;22.67;;;9.50;;
19111;SDS011;9688;51.906;8.376;2022-10-31T03:19:36;18.60;;;8.70;;
19111;SDS011;9688;51.906;8.376;2022-10-31T03:22:25;13.53;;;8.37;;
19111;SDS011;9688;51.906;8.376;2022-10-31T03:25:15;19.67;;;9.43;;
19111;SDS011;9688;51.906;8.376;2022-10-31T03:28:02;17.23;;;9.17;;
19111;SDS011;9688;51.906;8.376;2022-10-31T03:30:50;17.90;;;9.57;;
19111;SDS011;9688;51.906;8.376;2022-10-31T03:33:37;16.23;;;8.80;;
19111;SDS011;9688;51.906;8.376;2022-10-31T03:36:25;17.00;;;9.57;;
19111;SDS011;9688;51.906;8.376;2022-10-31T03:39:13;20.97;;;9.20;;
19111;SDS011;9688;51.906;8.376;2022-10-31T03:42:02;15.93;;;8.87;;
19111;SDS011;9688;51.906;8.376;2022-10-31T03:44:52;19.30;;;9.43;;
19111;SDS011;9688;51.906;8.376;2022-10-31T03:47:40;17.47;;;8.70;;
19111;SDS011;9688;51.906;8.376;2022-10-31T03:50:28;18.87;;;8.97;;
19111;SDS011;9688;51.906;8.376;2022-10-31T03:53:21;15.80;;;9.23;;
19111;SDS011;9688;51.906;8.376;2022-10-31T03:56:12;22.03;;;9.00;;
19111;SDS011;9688;51.906;8.376;2022-10-31T03:59:07;14.67;;;8.67;;
19111;SDS011;9688;51.906;8.376;2022-10-31T04:01:59;17.57;;;9.33;;
19111;SDS011;9688;51.906;8.376;2022-10-31T04:04:48;19.57;;;9.67;;
19111;SDS011;9688;51.906;8.376;2022-10-31T04:07:35;15.87;;;8.73;;
19111;SDS011;9688;51.906;8.376;2022-10-31T04:10:25;17.50;;;8.60;;
19111;SDS011;9688;51.906;8.376;2022-10-31T04:13:14;21.23;;;8.83;;
19111;SDS011;9688;51.906;8.376;2022-10-31T04:16:06;13.77;;;8.73;;
19111;SDS011;9688;51.906;8.376;2022-10-31T04:18:54;20.83;;;9.37;;
19111;SDS011;9688;51.906;8.376;2022-10-31T04:21:40;19.70;;;9.70;;
19111;SDS011;9688;51.906;8.376;2022-10-31T04:24:27;17.73;;;8.57;;
19111;SDS011;9688;51.906;8.376;2022-10-31T04:27:12;18.77;;;9.27;;
19111;SDS011;9688;51.906;8.376;2022-10-31T04:29:58;18.83;;;10.10;;
19111;SDS011;9688;51.906;8.376;2022-10-31T04:32:45;26.53;;;9.97;;
19111;SDS011;9688;51.906;8.376;2022-10-31T04:35:31;18.50;;;9.30;;
19111;SDS011;9688;51.906;8.376;2022-10-31T04:38:16;13.57;;;9.30;;
19111;SDS011;9688;51.906;8.376;2022-10-31T04:41:04;15.23;;;9.03;;
19111;SDS011;9688;51.906;8.376;2022-10-31T04:43:49;18.00;;;9.33;;
19111;SDS011;9688;51.906;8.376;2022-10-31T04:46:35;24.03;;;9.87;;
19111;SDS011;9688;51.906;8.376;2022-10-31T04:49:22;19.77;;;10.00;;
19111;SDS011;9688;51.906;8.376;2022-10-31T04:52:08;15.93;;;9.00;;
19111;SDS011;9688;51.906;8.376;2022-10-31T04:54:53;16.43;;;9.17;;
19111;SDS011;9688;51.906;8.376;2022-10-31T04:57:42;17.33;;;9.23;;
19111;SDS011;9688;51.906;8.376;2022-10-31T05:00:28;16.73;;;9.57;;
19111;SDS011;9688;51.906;8.376;2022-10-31T05:03:13;16.97;;;9.27;;
19111;SDS011;9688;51.906;8.376;2022-10-31T05:06:00;22.80;;;10.07;;
19111;SDS011;9688;51.906;8.376;2022-10-31T05:08:46;15.80;;;8.47;;
19111;SDS011;9688;51.906;8.376;2022-10-31T05:11:31;17.47;;;10.00;;
19111;SDS011;9688;51.906;8.376;2022-10-31T05:14:17;17.00;;;9.50;;
19111;SDS011;9688;51.906;8.376;2022-10-31T05:17:02;21.53;;;10.20;;
19111;SDS011;9688;51.906;8.376;2022-10-31T05:19:48;18.27;;;9.30;;
19111;SDS011;9688;51.906;8.376;2022-10-31T05:22:35;18.67;;;10.17;;
19111;SDS011;9688;51.906;8.376;2022-10-31T05:25:21;20.93;;;9.80;;
19111;SDS011;9688;51.906;8.376;2022-10-31T05:28:08;18.73;;;8.90;;
19111;SDS011;9688;51.906;8.376;2022-10-31T05:30:53;20.50;;;10.23;;
19111;SDS011;9688;51.906;8.376;2022-10-31T05:33:38;20.10;;;10.10;;
19111;SDS011;9688;51.906;8.376;2022-10-31T05:36:24;21.37;;;9.33;;
19111;SDS011;9688;51.906;8.376;2022-10-31T05:39:11;17.10;;;9.27;;
19111;SDS011;9688;51.906;8.376;2022-10-31T05:41:57;15.00;;;9.30;;
19111;SDS011;9688;51.906;8.376;2022-10-31T05:44:42;21.23;;;9.33;;
19111;SDS011;9688;51.906;8.376;2022-10-31T05:47:28;22.43;;;10.50;;
19111;SDS011;9688;51.906;8.376;2022-10-31T05:50:16;18.07;;;10.53;;
19111;SDS011;9688;51.906;8.376;2022-10-31T05:53:04;18.43;;;9.93;;
19111;SDS011;9688;51.906;8.376;2022-10-31T05:55:51;21.87;;;9.97;;
19111;SDS011;9688;51.906;8.376;2022-10-31T05:58:37;20.20;;;10.57;;
19111;SDS011;9688;51.906;8.376;2022-10-31T06:01:22;20.33;;;10.93;;
19111;SDS011;9688;51.906;8.376;2022-10-31T06:04:08;19.33;;;9.87;;
19111;SDS011;9688;51.906;8.376;2022-10-31T06:06:53;19.70;;;10.17;;
19111;SDS011;9688;51.906;8.376;2022-10-31T06:09:39;25.40;;;10.07;;
19111;SDS011;9688;51.906;8.376;2022-10-31T06:12:26;16.20;;;9.37;;
19111;SDS011;9688;51.906;8.376;2022-10-31T06:15:12;19.60;;;9.77;;
19111;SDS011;9688;51.906;8.376;2022-10-31T06:17:59;19.80;;;9.33;;
19111;SDS011;9688;51.906;8.376;2022-10-31T06:20:45;18.33;;;9.97;;
19111;SDS011;9688;51.906;8.376;2022-10-31T06:23:30;22.37;;;9.17;;
19111;SDS011;9688;51.906;8.376;2022-10-31T06:26:16;22.60;;;9.77;;
19111;SDS011;9688;51.906;8.376;2022-10-31T06:29:04;19.90;;;10.77;;
19111;SDS011;9688;51.906;8.376;2022-10-31T06:31:50;19.63;;;9.37;;
19111;SDS011;9688;51.906;8.376;2022-10-31T06:34:36;22.83;;;9.90;;
19111;SDS011;9688;51.906;8.376;2022-10-31T06:37:22;19.93;;;10.00;;
19111;SDS011;9688;51.906;8.376;2022-10-31T06:40:08;19.60;;;10.53;;
19111;SDS011;9688;51.906;8.376;2022-10-31T06:42:58;21.13;;;10.13;;
19111;SDS011;9688;51.906;8.376;2022-10-31T06:45:45;18.17;;;9.53;;
19111;SDS011;9688;51.906;8.376;2022-10-31T06:48:31;18.63;;;9.47;;
19111;SDS011;9688;51.906;8.376;2022-10-31T06:51:16;27.50;;;10.97;;
19111;SDS011;9688;51.906;8.376;2022-10-31T06:54:02;22.20;;;9.63;;
19111;SDS011;9688;51.906;8.376;2022-10-31T06:56:48;18.80;;;10.43;;
19111;SDS011;9688;51.906;8.376;2022-10-31T06:59:33;19.13;;;9.87;;
19111;SDS011;9688;51.906;8.376;2022-10-31T07:02:20;19.70;;;9.60;;
19111;SDS011;9688;51.906;8.376;2022-10-31T07:05:06;15.43;;;9.07;;
19111;SDS011;9688;51.906;8.376;2022-10-31T07:07:52;23.60;;;10.23;;
19111;SDS011;9688;51.906;8.376;2022-10-31T07:10:39;23.63;;;10.63;;
19111;SDS011;9688;51.906;8.376;2022-10-31T07:13:26;20.60;;;10.87;;
19111;SDS011;9688;51.906;8.376;2022-10-31T07:16:12;20.20;;;9.60;;
19111;SDS011;9688;51.906;8.376;2022-10-31T07:18:59;22.13;;;10.50;;
19111;SDS011;9688;51.906;8.376;2022-10-31T07:21:45;24.70;;;11.37;;
19111;SDS011;9688;51.906;8.376;2022-10-31T07:24:30;23.20;;;11.83;;
19111;SDS011;9688;51.906;8.376;2022-10-31T07:27:15;20.70;;;11.10;;
19111;SDS011;9688;51.906;8.376;2022-10-31T07:30:05;21.87;;;11.37;;
19111;SDS011;9688;51.906;8.376;2022-10-31T07:32:52;27.87;;;11.30;;
19111;SDS011;9688;51.906;8.376;2022-10-31T07:35:40;24.93;;;12.37;;
19111;SDS011;9688;51.906;8.376;2022-10-31T07:38:27;19.83;;;10.93;;
19111;SDS011;9688;51.906;8.376;2022-10-31T07:41:12;19.73;;;11.40;;
19111;SDS011;9688;51.906;8.376;2022-10-31T07:43:57;24.20;;;11.53;;
19111;SDS011;9688;51.906;8.376;2022-10-31T07:46:43;23.03;;;11.80;;
19111;SDS011;9688;51.906;8.376;2022-10-31T07:49:29;19.20;;;11.00;;
19111;SDS011;9688;51.906;8.376;2022-10-31T07:52:16;25.53;;;11.70;;
19111;SDS011;9688;51.906;8.376;2022-10-31T07:55:01;20.07;;;11.77;;
19111;SDS011;9688;51.906;8.376;2022-10-31T07:57:54;20.13;;;11.63;;
19111;SDS011;9688;51.906;8.376;2022-10-31T08:00:43;23.90;;;12.00;;
19111;SDS011;9688;51.906;8.376;2022-10-31T08:03:30;19.23;;;10.87;;
19111;SDS011;9688;51.906;8.376;2022-10-31T08:06:15;24.53;;;11.40;;
19111;SDS011;9688;51.906;8.376;2022-10-31T08:09:02;25.90;;;12.87;;
19111;SDS011;9688;51.906;8.376;2022-10-31T08:11:49;27.57;;;12.83;;
19111;SDS011;9688;51.906;8.376;2022-10-31T08:14:35;27.00;;;13.40;;
19111;SDS011;9688;51.906;8.376;2022-10-31T08:17:21;25.93;;;12.07;;
19111;SDS011;9688;51.906;8.376;2022-10-31T08:20:07;25.90;;;12.57;;
19111;SDS011;9688;51.906;8.376;2022-10-31T08:22:56;23.40;;;12.47;;
19111;SDS011;9688;51.906;8.376;2022-10-31T08:25:48;27.17;;;13.40;;
19111;SDS011;9688;51.906;8.376;2022-10-31T08:28:35;27.00;;;12.73;;
19111;SDS011;9688;51.906;8.376;2022-10-31T08:31:20;31.70;;;13.50;;
19111;SDS011;9688;51.906;8.376;2022-10-31T08:34:07;23.23;;;13.70;;
19111;SDS011;9688;51.906;8.376;2022-10-31T08:36:52;27.40;;;13.67;;
19111;SDS011;9688;51.906;8.376;2022-10-31T08:39:38;29.20;;;13.93;;
19111;SDS011;9688;51.906;8.376;2022-10-31T08:42:26;27.43;;;13.73;;
19111;SDS011;9688;51.906;8.376;2022-10-31T08:45:12;36.53;;;13.80;;
19111;SDS011;9688;51.906;8.376;2022-10-31T08:47:57;30.50;;;14.17;;
19111;SDS011;9688;51.906;8.376;2022-10-31T08:50:44;26.10;;;13.37;;
19111;SDS011;9688;51.906;8.376;2022-10-31T08:53:30;26.57;;;14.00;;
19111;SDS011;9688;51.906;8.376;2022-10-31T08:56:18;31.43;;;14.37;;
19111;SDS011;9688;51.906;8.376;2022-10-31T08:59:05;30.57;;;15.07;;
19111;SDS011;9688;51.906;8.376;2022-10-31T09:01:51;28.63;;;14.80;;
19111;SDS011;9688;51.906;8.376;2022-10-31T09:04:36;26.83;;;14.27;;
19111;SDS011;9688;51.906;8.376;2022-10-31T09:07:22;29.53;;;14.73;;
19111;SDS011;9688;51.906;8.376;2022-10-31T09:10:07;32.30;;;15.03;;
19111;SDS011;9688;51.906;8.376;2022-10-31T09:12:54;30.50;;;16.33;;
19111;SDS011;9688;51.906;8.376;2022-10-31T09:15:42;32.17;;;15.50;;
19111;SDS011;9688;51.906;8.376;2022-10-31T09:18:29;32.03;;;16.23;;
19111;SDS011;9688;51.906;8.376;2022-10-31T09:21:15;34.33;;;16.90;;
19111;SDS011;9688;51.906;8.376;2022-10-31T09:24:00;37.93;;;17.07;;
19111;SDS011;9688;51.906;8.376;2022-10-31T09:26:46;36.60;;;16.93;;
19111;SDS011;9688;51.906;8.376;2022-10-31T09:29:32;36.67;;;17.00;;
19111;SDS011;9688;51.906;8.376;2022-10-31T09:32:19;35.27;;;17.60;;
19111;SDS011;9688;51.906;8.376;2022-10-31T09:35:05;38.20;;;18.33;;
19111;SDS011;9688;51.906;8.376;2022-10-31T09:37:54;38.33;;;16.53;;
19111;SDS011;9688;51.906;8.376;2022-10-31T09:40:43;35.13;;;17.27;;
19111;SDS011;9688;51.906;8.376;2022-10-31T09:43:32;40.10;;;18.77;;
19111;SDS011;9688;51.906;8.376;2022-10-31T09:46:32;36.67;;;18.47;;
19111;SDS011;9688;51.906;8.376;2022-10-31T09:49:36;39.00;;;18.07;;
19111;SDS011;9688;51.906;8.376;2022-10-31T09:52:35;38.87;;;19.07;;
19111;SDS011;9688;51.906;8.376;2022-10-31T09:55:25;38.77;;;18.97;;
19111;SDS011;9688;51.906;8.376;2022-10-31T09:58:17;39.73;;;17.87;;
19111;SDS011;9688;51.906;8.376;2022-10-31T10:01:06;39.57;;;19.73;;
19111;SDS011;9688;51.906;8.376;2022-10-31T10:04:02;41.00;;;18.50;;
19111;SDS011;9688;51.906;8.376;2022-10-31T10:07:05;35.23;;;18.67;;
19111;SDS011;9688;51.906;8.376;2022-10-31T10:09:58;41.73;;;19.00;;
19111;SDS011;9688;51.906;8.376;2022-10-31T10:13:00;37.43;;;18.87;;
19111;SDS011;9688;51.906;8.376;2022-10-31T10:16:10;38.57;;;18.30;;
19111;SDS011;9688;51.906;8.376;2022-10-31T10:19:07;39.20;;;18.43;;
19111;SDS011;9688;51.906;8.376;2022-10-31T10:22:07;36.90;;;18.63;;
19111;SDS011;9688;51.906;8.376;2022-10-31T10:25:02;36.77;;;18.10;;
19111;SDS011;9688;51.906;8.376;2022-10-31T10:28:03;42.47;;;18.40;;
19111;SDS011;9688;51.906;8.376;2022-10-31T10:31:01;37.63;;;17.87;;
19111;SDS011;9688;51.906;8.376;2022-10-31T10:33:58;36.13;;;18.63;;
19111;SDS011;9688;51.906;8.376;2022-10-31T10:36:51;35.77;;;17.80;;
19111;SDS011;9688;51.906;8.376;2022-10-31T10:39:43;33.27;;;16.83;;
19111;SDS011;9688;51.906;8.376;2022-10-31T10:42:32;37.57;;;17.20;;
19111;SDS011;9688;51.906;8.376;2022-10-31T10:45:37;33.00;;;17.47;;
19111;SDS011;9688;51.906;8.376;2022-10-31T10:48:42;34.63;;;16.03;;
19111;SDS011;9688;51.906;8.376;2022-10-31T10:51:33;34.27;;;16.13;;
19111;SDS011;9688;51.906;8.376;2022-10-31T10:57:54;32.40;;;16.30;;
19111;SDS011;9688;51.906;8.376;2022-10-31T11:00:42;28.97;;;14.97;;
19111;SDS011;9688;51.906;8.376;2022-10-31T11:03:30;31.77;;;15.87;;
19111;SDS011;9688;51.906;8.376;2022-10-31T11:06:22;39.37;;;15.87;;
19111;SDS011;9688;51.906;8.376;2022-10-31T11:09:09;39.10;;;16.70;;
19111;SDS011;9688;51.906;8.376;2022-10-31T11:11:57;30.30;;;15.87;;
19111;SDS011;9688;51.906;8.376;2022-10-31T11:14:44;34.43;;;15.40;;
19111;SDS011;9688;51.906;8.376;2022-10-31T11:17:33;33.97;;;16.07;;
19111;SDS011;9688;51.906;8.376;2022-10-31T11:20:25;32.57;;;15.47;;
19111;SDS011;9688;51.906;8.376;2022-10-31T11:23:21;34.30;;;17.10;;
19111;SDS011;9688;51.906;8.376;2022-10-31T11:26:17;39.27;;;17.07;;
19111;SDS011;9688;51.906;8.376;2022-10-31T11:29:10;36.33;;;18.40;;
19111;SDS011;9688;51.906;8.376;2022-10-31T11:31:58;34.43;;;17.07;;
19111;SDS011;9688;51.906;8.376;2022-10-31T11:34:46;47.00;;;18.87;;
19111;SDS011;9688;51.906;8.376;2022-10-31T11:37:35;45.40;;;18.40;;
19111;SDS011;9688;51.906;8.376;2022-10-31T11:40:27;42.70;;;18.40;;
19111;SDS011;9688;51.906;8.376;2022-10-31T11:43:15;34.20;;;17.80;;
19111;SDS011;9688;51.906;8.376;2022-10-31T11:46:12;35.07;;;17.33;;
19111;SDS011;9688;51.906;8.376;2022-10-31T11:49:11;37.17;;;17.53;;
19111;SDS011;9688;51.906;8.376;2022-10-31T11:52:04;37.43;;;17.93;;
19111;SDS011;9688;51.906;8.376;2022-10-31T11:54:55;36.17;;;18.13;;
19111;SDS011;9688;51.906;8.376;2022-10-31T11:57:43;37.37;;;18.43;;
19111;SDS011;9688;51.906;8.376;2022-10-31T12:00:31;35.13;;;17.70;;
19111;SDS011;9688;51.906;8.376;2022-10-31T12:06:28;37.23;;;18.20;;
19111;SDS011;9688;51.906;8.376;2022-10-31T12:09:19;34.93;;;17.23;;
19111;SDS011;9688;51.906;8.376;2022-10-31T12:12:11;40.23;;;18.03;;
19111;SDS011;9688;51.906;8.376;2022-10-31T12:15:22;40.60;;;18.33;;
19111;SDS011;9688;51.906;8.376;2022-10-31T12:18:31;36.63;;;18.13;;
19111;SDS011;9688;51.906;8.376;2022-10-31T12:21:49;37.30;;;17.27;;
19111;SDS011;9688;51.906;8.376;2022-10-31T12:28:03;33.60;;;16.57;;
19111;SDS011;9688;51.906;8.376;2022-10-31T12:30:59;33.93;;;16.37;;
19111;SDS011;9688;51.906;8.376;2022-10-31T12:33:57;34.07;;;16.97;;
19111;SDS011;9688;51.906;8.376;2022-10-31T12:36:53;33.20;;;16.63;;
19111;SDS011;9688;51.906;8.376;2022-10-31T12:39:50;35.33;;;17.03;;
19111;SDS011;9688;51.906;8.376;2022-10-31T12:42:54;31.57;;;17.23;;
19111;SDS011;9688;51.906;8.376;2022-10-31T12:45:52;36.23;;;16.83;;
19111;SDS011;9688;51.906;8.376;2022-10-31T12:48:46;39.27;;;17.30;;
19111;SDS011;9688;51.906;8.376;2022-10-31T12:52:02;38.23;;;18.37;;
19111;SDS011;9688;51.906;8.376;2022-10-31T12:55:03;37.77;;;16.47;;
19111;SDS011;9688;51.906;8.376;2022-10-31T12:58:04;39.17;;;16.73;;
19111;SDS011;9688;51.906;8.376;2022-10-31T13:01:00;33.27;;;17.10;;
19111;SDS011;9688;51.906;8.376;2022-10-31T13:03:57;29.33;;;15.70;;
19111;SDS011;9688;51.906;8.376;2022-10-31T13:06:50;34.63;;;16.43;;
19111;SDS011;9688;51.906;8.376;2022-10-31T13:09:42;27.47;;;15.43;;
19111;SDS011;9688;51.906;8.376;2022-10-31T13:12:35;27.47;;;15.30;;
19111;SDS011;9688;51.906;8.376;2022-10-31T13:15:23;31.00;;;13.77;;
19111;SDS011;9688;51.906;8.376;2022-10-31T13:18:14;29.93;;;12.87;;
19111;SDS011;9688;51.906;8.376;2022-10-31T13:21:12;24.40;;;13.17;;
19111;SDS011;9688;51.906;8.376;2022-10-31T13:24:07;23.87;;;12.07;;
19111;SDS011;9688;51.906;8.376;2022-10-31T13:26:58;20.80;;;10.63;;
19111;SDS011;9688;51.906;8.376;2022-10-31T13:29:52;23.23;;;10.27;;
19111;SDS011;9688;51.906;8.376;2022-10-31T13:32:44;19.30;;;9.77;;
19111;SDS011;9688;51.906;8.376;2022-10-31T13:35:36;17.90;;;10.00;;
19111;SDS011;9688;51.906;8.376;2022-10-31T13:38:27;23.30;;;9.30;;
19111;SDS011;9688;51.906;8.376;2022-10-31T13:41:30;21.10;;;8.50;;
19111;SDS011;9688;51.906;8.376;2022-10-31T13:44:24;19.47;;;8.90;;
19111;SDS011;9688;51.906;8.376;2022-10-31T13:47:21;15.20;;;7.63;;
19111;SDS011;9688;51.906;8.376;2022-10-31T13:50:22;16.87;;;8.07;;
19111;SDS011;9688;51.906;8.376;2022-10-31T13:53:12;19.90;;;8.70;;
19111;SDS011;9688;51.906;8.376;2022-10-31T13:56:02;19.37;;;8.83;;
19111;SDS011;9688;51.906;8.376;2022-10-31T13:59:05;18.83;;;7.67;;
19111;SDS011;9688;51.906;8.376;2022-10-31T14:02:12;14.37;;;7.90;;
19111;SDS011;9688;51.906;8.376;2022-10-31T14:05:01;14.83;;;7.80;;
19111;SDS011;9688;51.906;8.376;2022-10-31T14:07:49;14.50;;;7.83;;
19111;SDS011;9688;51.906;8.376;2022-10-31T14:10:36;17.33;;;8.70;;
19111;SDS011;9688;51.906;8.376;2022-10-31T14:13:24;18.90;;;7.63;;
19111;SDS011;9688;51.906;8.376;2022-10-31T14:16:20;15.37;;;7.90;;
19111;SDS011;9688;51.906;8.376;2022-10-31T14:19:13;17.77;;;8.13;;
19111;SDS011;9688;51.906;8.376;2022-10-31T14:22:01;15.53;;;7.93;;
19111;SDS011;9688;51.906;8.376;2022-10-31T14:24:48;16.27;;;8.43;;
19111;SDS011;9688;51.906;8.376;2022-10-31T14:27:35;14.77;;;7.10;;
19111;SDS011;9688;51.906;8.376;2022-10-31T14:30:30;15.83;;;7.80;;
19111;SDS011;9688;51.906;8.376;2022-10-31T14:33:18;14.17;;;7.60;;
19111;SDS011;9688;51.906;8.376;2022-10-31T14:36:06;20.77;;;8.63;;
19111;SDS011;9688;51.906;8.376;2022-10-31T14:38:58;15.87;;;8.33;;
19111;SDS011;9688;51.906;8.376;2022-10-31T14:41:57;17.70;;;8.67;;
19111;SDS011;9688;51.906;8.376;2022-10-31T14:45:02;14.50;;;8.17;;
19111;SDS011;9688;51.906;8.376;2022-10-31T14:48:05;18.67;;;8.37;;
19111;SDS011;9688;51.906;8.376;2022-10-31T14:51:03;17.43;;;8.33;;
19111;SDS011;9688;51.906;8.376;2022-10-31T14:53:56;16.10;;;8.07;;
19111;SDS011;9688;51.906;8.376;2022-10-31T14:56:46;15.23;;;7.83;;
19111;SDS011;9688;51.906;8.376;2022-10-31T14:59:36;20.33;;;8.63;;
19111;SDS011;9688;51.906;8.376;2022-10-31T15:02:24;13.93;;;8.50;;
19111;SDS011;9688;51.906;8.376;2022-10-31T15:05:15;20.90;;;8.77;;
19111;SDS011;9688;51.906;8.376;2022-10-31T15:08:04;18.60;;;10.00;;
19111;SDS011;9688;51.906;8.376;2022-10-31T15:10:49;26.90;;;9.67;;
19111;SDS011;9688;51.906;8.376;2022-10-31T15:13:40;18.73;;;9.73;;
19111;SDS011;9688;51.906;8.376;2022-10-31T15:16:28;19.80;;;9.07;;
19111;SDS011;9688;51.906;8.376;2022-10-31T15:19:20;22.80;;;9.40;;
19111;SDS011;9688;51.906;8.376;2022-10-31T15:22:09;15.97;;;8.30;;
19111;SDS011;9688;51.906;8.376;2022-10-31T15:25:03;24.27;;;9.87;;
19111;SDS011;9688;51.906;8.376;2022-10-31T15:28:12;24.87;;;10.13;;
19111;SDS011;9688;51.906;8.376;2022-10-31T15:31:01;21.73;;;9.77;;
19111;SDS011;9688;51.906;8.376;2022-10-31T15:33:47;21.90;;;9.70;;
19111;SDS011;9688;51.906;8.376;2022-10-31T15:36:36;22.40;;;10.00;;
19111;SDS011;9688;51.906;8.376;2022-10-31T15:39:21;17.80;;;9.37;;
19111;SDS011;9688;51.906;8.376;2022-10-31T15:42:14;18.73;;;10.00;;
19111;SDS011;9688;51.906;8.376;2022-10-31T15:45:13;18.37;;;11.63;;
19111;SDS011;9688;51.906;8.376;2022-10-31T15:48:13;22.40;;;9.60;;
19111;SDS011;9688;51.906;8.376;2022-10-31T15:51:07;22.10;;;10.97;;
19111;SDS011;9688;51.906;8.376;2022-10-31T15:53:54;23.53;;;10.43;;
19111;SDS011;9688;51.906;8.376;2022-10-31T15:56:44;18.27;;;10.00;;
19111;SDS011;9688;51.906;8.376;2022-10-31T15:59:31;20.70;;;10.27;;
19111;SDS011;9688;51.906;8.376;2022-10-31T16:02:18;19.43;;;10.37;;
19111;SDS011;9688;51.906;8.376;2022-10-31T16:05:15;23.40;;;11.07;;
19111;SDS011;9688;51.906;8.376;2022-10-31T16:11:17;27.83;;;10.90;;
19111;SDS011;9688;51.906;8.376;2022-10-31T16:14:14;22.97;;;10.47;;
19111;SDS011;9688;51.906;8.376;2022-10-31T16:17:05;28.83;;;10.80;;
19111;SDS011;9688;51.906;8.376;2022-10-31T16:20:00;24.43;;;10.80;;
19111;SDS011;9688;51.906;8.376;2022-10-31T16:22:52;25.63;;;10.33;;
19111;SDS011;9688;51.906;8.376;2022-10-31T16:25:39;18.53;;;9.83;;
19111;SDS011;9688;51.906;8.376;2022-10-31T16:28:28;24.40;;;10.30;;
19111;SDS011;9688;51.906;8.376;2022-10-31T16:31:24;19.33;;;10.67;;
19111;SDS011;9688;51.906;8.376;2022-10-31T16:34:15;25.03;;;10.50;;
19111;SDS011;9688;51.906;8.376;2022-10-31T16:37:04;22.97;;;11.17;;
19111;SDS011;9688;51.906;8.376;2022-10-31T16:39:50;23.93;;;10.73;;
19111;SDS011;9688;51.906;8.376;2022-10-31T16:42:39;20.73;;;10.77;;
19111;SDS011;9688;51.906;8.376;2022-10-31T16:45:25;21.13;;;10.43;;
19111;SDS011;9688;51.906;8.376;2022-10-31T16:48:13;22.07;;;10.13;;
19111;SDS011;9688;51.906;8.376;2022-10-31T16:51:01;22.30;;;10.10;;
19111;SDS011;9688;51.906;8.376;2022-10-31T16:53:47;23.50;;;10.23;;
19111;SDS011;9688;51.906;8.376;2022-10-31T16:56:33;18.93;;;9.37;;
19111;SDS011;9688;51.906;8.376;2022-10-31T16:59:21;20.70;;;9.93;;
19111;SDS011;9688;51.906;8.376;2022-10-31T17:02:08;23.10;;;9.60;;
19111;SDS011;9688;51.906;8.376;2022-10-31T17:04:58;19.07;;;9.77;;
19111;SDS011;9688;51.906;8.376;2022-10-31T17:07:47;25.83;;;10.73;;
19111;SDS011;9688;51.906;8.376;2022-10-31T17:10:34;19.90;;;11.40;;
19111;SDS011;9688;51.906;8.376;2022-10-31T17:13:21;18.73;;;9.97;;
19111;SDS011;9688;51.906;8.376;2022-10-31T17:16:09;24.93;;;9.70;;